sensor_id;sensor_type;location;lat;lon;timestamp;P1;durP1;ratioP1;P2;durP2;ratioP2
37241;SDS011;23135;51.078;12.108;2024-01-06T00:02:23;3.00;;;0.85;;
37241;SDS011;23135;51.078;12.108;2024-01-06T00:04:49;8.05;;;1.23;;
37241;SDS011;23135;51.078;12.108;2024-01-06T00:07:15;6.30;;;1.48;;
37241;SDS011;23135;51.078;12.108;2024-01-06T00:09:40;4.32;;;1.05;;
37241;SDS011;23135;51.078;12.108;2024-01-06T00:12:06;6.60;;;1.83;;
37241;SDS011;23135;51.078;12.108;2024-01-06T00:14:31;5.22;;;1.13;;
37241;SDS011;23135;51.078;12.108;2024-01-06T00:16:57;5.28;;;1.77;;
37241;SDS011;23135;51.078;12.108;2024-01-06T00:19:22;3.17;;;1.38;;
37241;SDS011;23135;51.078;12.108;2024-01-06T00:21:48;4.05;;;1.10;;
37241;SDS011;23135;51.078;12.108;2024-01-06T00:24:14;7.85;;;2.47;;
37241;SDS011;23135;51.078;12.108;2024-01-06T00:26:39;2.80;;;1.25;;
37241;SDS011;23135;51.078;12.108;2024-01-06T00:29:05;5.32;;;1.15;;
37241;SDS011;23135;51.078;12.108;2024-01-06T00:31:30;6.00;;;1.25;;
37241;SDS011;23135;51.078;12.108;2024-01-06T00:33:56;6.38;;;1.30;;
37241;SDS011;23135;51.078;12.108;2024-01-06T00:36:22;2.58;;;1.45;;
37241;SDS011;23135;51.078;12.108;2024-01-06T00:38:47;4.13;;;1.17;;
37241;SDS011;23135;51.078;12.108;2024-01-06T00:41:13;10.70;;;2.03;;
37241;SDS011;23135;51.078;12.108;2024-01-06T00:43:39;5.60;;;1.23;;
37241;SDS011;23135;51.078;12.108;2024-01-06T00:46:04;8.32;;;1.83;;
37241;SDS011;23135;51.078;12.108;2024-01-06T00:48:30;7.35;;;1.92;;
37241;SDS011;23135;51.078;12.108;2024-01-06T00:50:55;7.65;;;2.40;;
37241;SDS011;23135;51.078;12.108;2024-01-06T00:53:21;3.55;;;1.45;;
37241;SDS011;23135;51.078;12.108;2024-01-06T00:55:47;7.18;;;1.70;;
37241;SDS011;23135;51.078;12.108;2024-01-06T00:58:12;9.30;;;1.92;;
37241;SDS011;23135;51.078;12.108;2024-01-06T01:00:38;8.70;;;1.60;;
37241;SDS011;23135;51.078;12.108;2024-01-06T01:03:04;5.05;;;1.45;;
37241;SDS011;23135;51.078;12.108;2024-01-06T01:05:30;4.40;;;1.25;;
37241;SDS011;23135;51.078;12.108;2024-01-06T01:07:55;4.55;;;1.02;;
37241;SDS011;23135;51.078;12.108;2024-01-06T01:10:21;5.45;;;1.60;;
37241;SDS011;23135;51.078;12.108;2024-01-06T01:12:46;7.47;;;2.20;;
37241;SDS011;23135;51.078;12.108;2024-01-06T01:15:12;4.60;;;1.67;;
37241;SDS011;23135;51.078;12.108;2024-01-06T01:17:38;6.50;;;2.20;;
37241;SDS011;23135;51.078;12.108;2024-01-06T01:20:03;5.93;;;1.38;;
37241;SDS011;23135;51.078;12.108;2024-01-06T01:22:29;2.83;;;1.33;;
37241;SDS011;23135;51.078;12.108;2024-01-06T01:24:55;4.65;;;1.65;;
37241;SDS011;23135;51.078;12.108;2024-01-06T01:27:20;6.43;;;1.58;;
37241;SDS011;23135;51.078;12.108;2024-01-06T01:29:46;9.55;;;1.70;;
37241;SDS011;23135;51.078;12.108;2024-01-06T01:32:13;5.18;;;1.58;;
37241;SDS011;23135;51.078;12.108;2024-01-06T01:34:38;10.80;;;1.35;;
37241;SDS011;23135;51.078;12.108;2024-01-06T01:37:04;7.43;;;1.08;;
37241;SDS011;23135;51.078;12.108;2024-01-06T01:39:29;10.40;;;2.33;;
37241;SDS011;23135;51.078;12.108;2024-01-06T01:41:55;4.85;;;1.50;;
37241;SDS011;23135;51.078;12.108;2024-01-06T01:44:21;7.22;;;1.17;;
37241;SDS011;23135;51.078;12.108;2024-01-06T01:46:46;7.32;;;2.35;;
37241;SDS011;23135;51.078;12.108;2024-01-06T01:49:12;13.90;;;2.13;;
37241;SDS011;23135;51.078;12.108;2024-01-06T01:51:38;14.75;;;1.55;;
37241;SDS011;23135;51.078;12.108;2024-01-06T01:54:05;13.82;;;1.90;;
37241;SDS011;23135;51.078;12.108;2024-01-06T01:56:31;6.38;;;3.13;;
37241;SDS011;23135;51.078;12.108;2024-01-06T01:59:11;12.07;;;2.58;;
37241;SDS011;23135;51.078;12.108;2024-01-06T02:01:38;3.38;;;1.73;;
37241;SDS011;23135;51.078;12.108;2024-01-06T02:04:07;6.28;;;1.80;;
37241;SDS011;23135;51.078;12.108;2024-01-06T02:06:33;7.88;;;1.90;;
37241;SDS011;23135;51.078;12.108;2024-01-06T02:08:59;5.75;;;2.25;;
37241;SDS011;23135;51.078;12.108;2024-01-06T02:11:24;7.20;;;2.08;;
37241;SDS011;23135;51.078;12.108;2024-01-06T02:13:50;3.05;;;1.08;;
37241;SDS011;23135;51.078;12.108;2024-01-06T02:16:15;7.32;;;2.13;;
37241;SDS011;23135;51.078;12.108;2024-01-06T02:18:41;2.67;;;1.63;;
37241;SDS011;23135;51.078;12.108;2024-01-06T02:21:07;6.10;;;1.08;;
37241;SDS011;23135;51.078;12.108;2024-01-06T02:23:34;7.18;;;1.45;;
37241;SDS011;23135;51.078;12.108;2024-01-06T02:26:00;3.17;;;1.33;;
37241;SDS011;23135;51.078;12.108;2024-01-06T02:28:26;6.55;;;1.88;;
37241;SDS011;23135;51.078;12.108;2024-01-06T02:30:52;6.22;;;1.35;;
37241;SDS011;23135;51.078;12.108;2024-01-06T02:33:18;4.30;;;1.20;;
37241;SDS011;23135;51.078;12.108;2024-01-06T02:35:48;11.52;;;1.23;;
37241;SDS011;23135;51.078;12.108;2024-01-06T02:38:14;12.38;;;1.67;;
37241;SDS011;23135;51.078;12.108;2024-01-06T02:40:40;6.03;;;1.35;;
37241;SDS011;23135;51.078;12.108;2024-01-06T02:43:05;9.77;;;1.42;;
37241;SDS011;23135;51.078;12.108;2024-01-06T02:45:31;2.60;;;1.38;;
37241;SDS011;23135;51.078;12.108;2024-01-06T02:47:57;7.68;;;2.03;;
37241;SDS011;23135;51.078;12.108;2024-01-06T02:50:22;3.38;;;0.75;;
37241;SDS011;23135;51.078;12.108;2024-01-06T02:52:48;5.53;;;1.33;;
37241;SDS011;23135;51.078;12.108;2024-01-06T02:55:13;6.25;;;1.38;;
37241;SDS011;23135;51.078;12.108;2024-01-06T02:57:39;5.38;;;1.65;;
37241;SDS011;23135;51.078;12.108;2024-01-06T03:00:06;8.98;;;1.85;;
37241;SDS011;23135;51.078;12.108;2024-01-06T03:02:32;3.78;;;1.27;;
37241;SDS011;23135;51.078;12.108;2024-01-06T03:04:58;5.97;;;1.13;;
37241;SDS011;23135;51.078;12.108;2024-01-06T03:07:23;8.52;;;1.77;;
37241;SDS011;23135;51.078;12.108;2024-01-06T03:09:49;5.88;;;1.80;;
37241;SDS011;23135;51.078;12.108;2024-01-06T03:12:15;6.93;;;1.25;;
37241;SDS011;23135;51.078;12.108;2024-01-06T03:14:40;2.28;;;1.05;;
37241;SDS011;23135;51.078;12.108;2024-01-06T03:17:06;5.22;;;1.58;;
37241;SDS011;23135;51.078;12.108;2024-01-06T03:19:31;3.90;;;1.70;;
37241;SDS011;23135;51.078;12.108;2024-01-06T03:21:57;4.40;;;1.65;;
37241;SDS011;23135;51.078;12.108;2024-01-06T03:24:23;6.95;;;1.85;;
37241;SDS011;23135;51.078;12.108;2024-01-06T03:26:49;6.13;;;1.88;;
37241;SDS011;23135;51.078;12.108;2024-01-06T03:29:15;2.63;;;1.65;;
37241;SDS011;23135;51.078;12.108;2024-01-06T03:31:44;7.93;;;2.80;;
37241;SDS011;23135;51.078;12.108;2024-01-06T03:34:10;7.30;;;2.22;;
37241;SDS011;23135;51.078;12.108;2024-01-06T03:36:36;10.05;;;1.98;;
37241;SDS011;23135;51.078;12.108;2024-01-06T03:39:02;6.43;;;1.85;;
37241;SDS011;23135;51.078;12.108;2024-01-06T03:41:28;8.00;;;2.53;;
37241;SDS011;23135;51.078;12.108;2024-01-06T03:43:54;6.55;;;1.60;;
37241;SDS011;23135;51.078;12.108;2024-01-06T03:46:19;6.95;;;3.08;;
37241;SDS011;23135;51.078;12.108;2024-01-06T03:48:46;10.57;;;2.33;;
37241;SDS011;23135;51.078;12.108;2024-01-06T03:51:12;7.85;;;2.70;;
37241;SDS011;23135;51.078;12.108;2024-01-06T03:53:37;8.27;;;2.50;;
37241;SDS011;23135;51.078;12.108;2024-01-06T03:56:03;10.23;;;2.03;;
37241;SDS011;23135;51.078;12.108;2024-01-06T03:58:29;4.40;;;2.85;;
37241;SDS011;23135;51.078;12.108;2024-01-06T04:00:55;5.60;;;2.40;;
37241;SDS011;23135;51.078;12.108;2024-01-06T04:03:20;7.82;;;2.30;;
37241;SDS011;23135;51.078;12.108;2024-01-06T04:05:46;11.55;;;3.80;;
37241;SDS011;23135;51.078;12.108;2024-01-06T04:08:11;9.68;;;2.53;;
37241;SDS011;23135;51.078;12.108;2024-01-06T04:10:37;13.13;;;2.75;;
37241;SDS011;23135;51.078;12.108;2024-01-06T04:13:02;8.13;;;2.13;;
37241;SDS011;23135;51.078;12.108;2024-01-06T04:15:29;6.63;;;2.33;;
37241;SDS011;23135;51.078;12.108;2024-01-06T04:17:54;9.57;;;1.80;;
37241;SDS011;23135;51.078;12.108;2024-01-06T04:20:20;13.27;;;4.03;;
37241;SDS011;23135;51.078;12.108;2024-01-06T04:22:45;9.02;;;3.05;;
37241;SDS011;23135;51.078;12.108;2024-01-06T04:25:11;15.48;;;2.90;;
37241;SDS011;23135;51.078;12.108;2024-01-06T04:27:37;7.20;;;2.67;;
37241;SDS011;23135;51.078;12.108;2024-01-06T04:30:02;8.85;;;2.92;;
37241;SDS011;23135;51.078;12.108;2024-01-06T04:32:28;5.03;;;2.13;;
37241;SDS011;23135;51.078;12.108;2024-01-06T04:34:54;4.40;;;1.52;;
37241;SDS011;23135;51.078;12.108;2024-01-06T04:37:21;6.05;;;2.33;;
37241;SDS011;23135;51.078;12.108;2024-01-06T04:39:47;3.03;;;1.40;;
37241;SDS011;23135;51.078;12.108;2024-01-06T04:42:12;13.85;;;1.80;;
37241;SDS011;23135;51.078;12.108;2024-01-06T04:44:38;8.98;;;1.13;;
37241;SDS011;23135;51.078;12.108;2024-01-06T04:47:03;6.22;;;1.90;;
37241;SDS011;23135;51.078;12.108;2024-01-06T04:49:29;6.30;;;1.60;;
37241;SDS011;23135;51.078;12.108;2024-01-06T04:51:54;3.97;;;1.88;;
37241;SDS011;23135;51.078;12.108;2024-01-06T04:54:22;5.97;;;1.73;;
37241;SDS011;23135;51.078;12.108;2024-01-06T04:56:47;6.90;;;1.88;;
37241;SDS011;23135;51.078;12.108;2024-01-06T04:59:13;4.45;;;1.58;;
37241;SDS011;23135;51.078;12.108;2024-01-06T05:01:39;4.35;;;2.05;;
37241;SDS011;23135;51.078;12.108;2024-01-06T05:04:04;11.45;;;1.25;;
37241;SDS011;23135;51.078;12.108;2024-01-06T05:06:30;6.30;;;2.88;;
37241;SDS011;23135;51.078;12.108;2024-01-06T05:08:56;7.30;;;2.17;;
37241;SDS011;23135;51.078;12.108;2024-01-06T05:11:22;9.80;;;1.85;;
37241;SDS011;23135;51.078;12.108;2024-01-06T05:13:47;8.80;;;1.90;;
37241;SDS011;23135;51.078;12.108;2024-01-06T05:16:13;4.68;;;2.10;;
37241;SDS011;23135;51.078;12.108;2024-01-06T05:18:38;8.13;;;1.90;;
37241;SDS011;23135;51.078;12.108;2024-01-06T05:21:04;8.43;;;2.72;;
37241;SDS011;23135;51.078;12.108;2024-01-06T05:23:30;4.97;;;1.80;;
37241;SDS011;23135;51.078;12.108;2024-01-06T05:25:55;5.05;;;1.67;;
37241;SDS011;23135;51.078;12.108;2024-01-06T05:28:21;5.13;;;1.58;;
37241;SDS011;23135;51.078;12.108;2024-01-06T05:30:46;3.92;;;2.40;;
37241;SDS011;23135;51.078;12.108;2024-01-06T05:33:12;6.80;;;2.17;;
37241;SDS011;23135;51.078;12.108;2024-01-06T05:35:38;8.27;;;2.72;;
37241;SDS011;23135;51.078;12.108;2024-01-06T05:38:04;7.03;;;1.80;;
37241;SDS011;23135;51.078;12.108;2024-01-06T05:40:29;5.47;;;1.38;;
37241;SDS011;23135;51.078;12.108;2024-01-06T05:42:55;2.67;;;0.80;;
37241;SDS011;23135;51.078;12.108;2024-01-06T05:45:21;6.75;;;1.52;;
37241;SDS011;23135;51.078;12.108;2024-01-06T05:47:47;3.38;;;1.40;;
37241;SDS011;23135;51.078;12.108;2024-01-06T05:50:14;9.75;;;2.55;;
37241;SDS011;23135;51.078;12.108;2024-01-06T05:52:41;7.55;;;2.35;;
37241;SDS011;23135;51.078;12.108;2024-01-06T05:55:07;3.92;;;1.58;;
37241;SDS011;23135;51.078;12.108;2024-01-06T05:57:32;3.97;;;1.45;;
37241;SDS011;23135;51.078;12.108;2024-01-06T05:59:59;9.77;;;1.48;;
37241;SDS011;23135;51.078;12.108;2024-01-06T06:02:24;5.28;;;2.40;;
37241;SDS011;23135;51.078;12.108;2024-01-06T06:04:50;3.90;;;1.38;;
37241;SDS011;23135;51.078;12.108;2024-01-06T06:07:17;3.70;;;1.42;;
37241;SDS011;23135;51.078;12.108;2024-01-06T06:09:43;6.35;;;2.53;;
37241;SDS011;23135;51.078;12.108;2024-01-06T06:12:12;6.65;;;1.63;;
37241;SDS011;23135;51.078;12.108;2024-01-06T06:14:37;4.07;;;2.28;;
37241;SDS011;23135;51.078;12.108;2024-01-06T06:17:03;9.60;;;2.35;;
37241;SDS011;23135;51.078;12.108;2024-01-06T06:19:28;4.22;;;1.58;;
37241;SDS011;23135;51.078;12.108;2024-01-06T06:21:54;5.28;;;1.92;;
37241;SDS011;23135;51.078;12.108;2024-01-06T06:24:20;5.68;;;2.22;;
37241;SDS011;23135;51.078;12.108;2024-01-06T06:26:45;11.88;;;1.67;;
37241;SDS011;23135;51.078;12.108;2024-01-06T06:29:11;4.88;;;1.67;;
37241;SDS011;23135;51.078;12.108;2024-01-06T06:31:36;4.15;;;1.73;;
37241;SDS011;23135;51.078;12.108;2024-01-06T06:34:02;5.53;;;2.30;;
37241;SDS011;23135;51.078;12.108;2024-01-06T06:36:27;5.38;;;1.67;;
37241;SDS011;23135;51.078;12.108;2024-01-06T06:38:54;7.03;;;2.15;;
37241;SDS011;23135;51.078;12.108;2024-01-06T06:41:19;7.95;;;2.15;;
37241;SDS011;23135;51.078;12.108;2024-01-06T06:43:45;1.77;;;1.17;;
37241;SDS011;23135;51.078;12.108;2024-01-06T06:46:10;5.43;;;2.15;;
37241;SDS011;23135;51.078;12.108;2024-01-06T06:48:36;4.70;;;1.70;;
37241;SDS011;23135;51.078;12.108;2024-01-06T06:51:02;12.13;;;2.40;;
37241;SDS011;23135;51.078;12.108;2024-01-06T06:53:27;5.00;;;1.58;;
37241;SDS011;23135;51.078;12.108;2024-01-06T06:55:53;4.47;;;1.33;;
37241;SDS011;23135;51.078;12.108;2024-01-06T06:58:19;10.98;;;2.20;;
37241;SDS011;23135;51.078;12.108;2024-01-06T07:00:44;4.15;;;1.25;;
37241;SDS011;23135;51.078;12.108;2024-01-06T07:03:10;5.38;;;1.55;;
37241;SDS011;23135;51.078;12.108;2024-01-06T07:05:35;5.72;;;2.17;;
37241;SDS011;23135;51.078;12.108;2024-01-06T07:08:01;8.38;;;2.78;;
37241;SDS011;23135;51.078;12.108;2024-01-06T07:10:27;15.65;;;2.83;;
37241;SDS011;23135;51.078;12.108;2024-01-06T07:12:53;7.13;;;2.35;;
37241;SDS011;23135;51.078;12.108;2024-01-06T07:15:18;4.55;;;1.77;;
37241;SDS011;23135;51.078;12.108;2024-01-06T07:17:44;7.18;;;2.38;;
37241;SDS011;23135;51.078;12.108;2024-01-06T07:20:09;6.40;;;2.13;;
37241;SDS011;23135;51.078;12.108;2024-01-06T07:22:36;8.18;;;2.15;;
37241;SDS011;23135;51.078;12.108;2024-01-06T07:25:01;9.75;;;1.60;;
37241;SDS011;23135;51.078;12.108;2024-01-06T07:27:27;8.90;;;2.92;;
37241;SDS011;23135;51.078;12.108;2024-01-06T07:29:52;5.85;;;3.67;;
37241;SDS011;23135;51.078;12.108;2024-01-06T07:32:18;6.13;;;1.55;;
37241;SDS011;23135;51.078;12.108;2024-01-06T07:34:44;9.57;;;3.20;;
37241;SDS011;23135;51.078;12.108;2024-01-06T07:37:09;5.53;;;2.50;;
37241;SDS011;23135;51.078;12.108;2024-01-06T07:39:35;9.93;;;3.72;;
37241;SDS011;23135;51.078;12.108;2024-01-06T07:42:01;5.65;;;2.00;;
37241;SDS011;23135;51.078;12.108;2024-01-06T07:44:27;5.65;;;1.35;;
37241;SDS011;23135;51.078;12.108;2024-01-06T07:46:53;6.85;;;2.75;;
37241;SDS011;23135;51.078;12.108;2024-01-06T07:49:19;5.25;;;1.65;;
37241;SDS011;23135;51.078;12.108;2024-01-06T07:51:44;5.63;;;2.83;;
37241;SDS011;23135;51.078;12.108;2024-01-06T07:54:10;3.35;;;1.90;;
37241;SDS011;23135;51.078;12.108;2024-01-06T07:56:36;7.57;;;1.98;;
37241;SDS011;23135;51.078;12.108;2024-01-06T07:59:03;15.38;;;4.00;;
37241;SDS011;23135;51.078;12.108;2024-01-06T08:01:29;12.27;;;3.95;;
37241;SDS011;23135;51.078;12.108;2024-01-06T08:03:55;8.20;;;3.40;;
37241;SDS011;23135;51.078;12.108;2024-01-06T08:06:20;12.63;;;4.22;;
37241;SDS011;23135;51.078;12.108;2024-01-06T08:08:46;7.13;;;3.88;;
37241;SDS011;23135;51.078;12.108;2024-01-06T08:11:12;10.15;;;3.65;;
37241;SDS011;23135;51.078;12.108;2024-01-06T08:13:37;9.63;;;2.60;;
37241;SDS011;23135;51.078;12.108;2024-01-06T08:16:03;10.18;;;2.03;;
37241;SDS011;23135;51.078;12.108;2024-01-06T08:18:30;5.38;;;2.30;;
37241;SDS011;23135;51.078;12.108;2024-01-06T08:20:56;7.85;;;2.15;;
37241;SDS011;23135;51.078;12.108;2024-01-06T08:23:21;5.50;;;2.22;;
37241;SDS011;23135;51.078;12.108;2024-01-06T08:25:47;9.05;;;2.35;;
37241;SDS011;23135;51.078;12.108;2024-01-06T08:28:13;6.78;;;2.80;;
37241;SDS011;23135;51.078;12.108;2024-01-06T08:30:43;7.00;;;2.35;;
37241;SDS011;23135;51.078;12.108;2024-01-06T08:33:09;11.63;;;2.60;;
37241;SDS011;23135;51.078;12.108;2024-01-06T08:35:35;6.00;;;1.90;;
37241;SDS011;23135;51.078;12.108;2024-01-06T08:38:05;14.75;;;3.13;;
37241;SDS011;23135;51.078;12.108;2024-01-06T08:40:31;6.13;;;1.98;;
37241;SDS011;23135;51.078;12.108;2024-01-06T08:42:56;10.85;;;3.78;;
37241;SDS011;23135;51.078;12.108;2024-01-06T08:45:22;11.43;;;3.47;;
37241;SDS011;23135;51.078;12.108;2024-01-06T08:47:48;6.28;;;2.20;;
37241;SDS011;23135;51.078;12.108;2024-01-06T08:50:13;8.70;;;2.17;;
37241;SDS011;23135;51.078;12.108;2024-01-06T08:52:39;5.10;;;2.63;;
37241;SDS011;23135;51.078;12.108;2024-01-06T08:55:04;5.90;;;3.08;;
37241;SDS011;23135;51.078;12.108;2024-01-06T08:57:30;5.38;;;2.65;;
37241;SDS011;23135;51.078;12.108;2024-01-06T08:59:56;9.05;;;2.70;;
37241;SDS011;23135;51.078;12.108;2024-01-06T09:02:21;8.52;;;2.83;;
37241;SDS011;23135;51.078;12.108;2024-01-06T09:04:47;7.97;;;2.97;;
37241;SDS011;23135;51.078;12.108;2024-01-06T09:07:13;7.07;;;3.38;;
37241;SDS011;23135;51.078;12.108;2024-01-06T09:09:38;10.13;;;3.80;;
37241;SDS011;23135;51.078;12.108;2024-01-06T09:12:04;5.68;;;3.25;;
37241;SDS011;23135;51.078;12.108;2024-01-06T09:14:30;8.15;;;3.17;;
37241;SDS011;23135;51.078;12.108;2024-01-06T09:16:55;10.75;;;3.20;;
37241;SDS011;23135;51.078;12.108;2024-01-06T09:19:21;6.38;;;2.70;;
37241;SDS011;23135;51.078;12.108;2024-01-06T09:21:47;8.50;;;2.13;;
37241;SDS011;23135;51.078;12.108;2024-01-06T09:24:12;11.07;;;4.47;;
37241;SDS011;23135;51.078;12.108;2024-01-06T09:26:38;7.70;;;2.63;;
37241;SDS011;23135;51.078;12.108;2024-01-06T09:29:04;12.88;;;3.17;;
37241;SDS011;23135;51.078;12.108;2024-01-06T09:31:29;7.72;;;2.80;;
37241;SDS011;23135;51.078;12.108;2024-01-06T09:33:55;6.35;;;2.38;;
37241;SDS011;23135;51.078;12.108;2024-01-06T09:36:21;4.90;;;2.67;;
37241;SDS011;23135;51.078;12.108;2024-01-06T09:38:46;6.32;;;2.78;;
37241;SDS011;23135;51.078;12.108;2024-01-06T09:41:12;7.78;;;4.32;;
37241;SDS011;23135;51.078;12.108;2024-01-06T09:43:37;8.95;;;2.72;;
37241;SDS011;23135;51.078;12.108;2024-01-06T09:46:10;5.32;;;2.53;;
37241;SDS011;23135;51.078;12.108;2024-01-06T09:48:41;4.38;;;1.80;;
37241;SDS011;23135;51.078;12.108;2024-01-06T09:51:09;12.52;;;3.85;;
37241;SDS011;23135;51.078;12.108;2024-01-06T09:53:36;5.85;;;2.63;;
37241;SDS011;23135;51.078;12.108;2024-01-06T09:56:08;12.70;;;3.70;;
37241;SDS011;23135;51.078;12.108;2024-01-06T09:58:35;10.60;;;3.45;;
37241;SDS011;23135;51.078;12.108;2024-01-06T10:01:02;8.13;;;3.20;;
37241;SDS011;23135;51.078;12.108;2024-01-06T10:03:28;6.45;;;3.67;;
37241;SDS011;23135;51.078;12.108;2024-01-06T10:05:54;11.55;;;4.65;;
37241;SDS011;23135;51.078;12.108;2024-01-06T10:08:19;12.00;;;4.05;;
37241;SDS011;23135;51.078;12.108;2024-01-06T10:10:45;9.32;;;3.42;;
37241;SDS011;23135;51.078;12.108;2024-01-06T10:13:11;13.88;;;4.68;;
37241;SDS011;23135;51.078;12.108;2024-01-06T10:15:36;18.10;;;3.55;;
37241;SDS011;23135;51.078;12.108;2024-01-06T10:18:02;12.00;;;4.78;;
37241;SDS011;23135;51.078;12.108;2024-01-06T10:20:28;9.93;;;3.63;;
37241;SDS011;23135;51.078;12.108;2024-01-06T10:22:54;12.90;;;5.13;;
37241;SDS011;23135;51.078;12.108;2024-01-06T10:25:22;13.40;;;3.95;;
37241;SDS011;23135;51.078;12.108;2024-01-06T10:27:48;11.02;;;4.85;;
37241;SDS011;23135;51.078;12.108;2024-01-06T10:30:14;13.73;;;5.20;;
37241;SDS011;23135;51.078;12.108;2024-01-06T10:32:43;14.70;;;5.65;;
37241;SDS011;23135;51.078;12.108;2024-01-06T10:35:09;9.98;;;5.75;;
37241;SDS011;23135;51.078;12.108;2024-01-06T10:37:35;9.82;;;5.03;;
37241;SDS011;23135;51.078;12.108;2024-01-06T10:40:09;14.65;;;7.20;;
37241;SDS011;23135;51.078;12.108;2024-01-06T10:42:36;12.80;;;3.83;;
37241;SDS011;23135;51.078;12.108;2024-01-06T10:45:05;16.98;;;4.65;;
37241;SDS011;23135;51.078;12.108;2024-01-06T10:47:33;11.70;;;4.20;;
37241;SDS011;23135;51.078;12.108;2024-01-06T10:50:00;8.68;;;2.72;;
37241;SDS011;23135;51.078;12.108;2024-01-06T10:52:26;13.13;;;2.97;;
37241;SDS011;23135;51.078;12.108;2024-01-06T10:54:53;11.18;;;2.58;;
37241;SDS011;23135;51.078;12.108;2024-01-06T10:57:20;10.13;;;2.65;;
37241;SDS011;23135;51.078;12.108;2024-01-06T10:59:46;13.98;;;3.78;;
37241;SDS011;23135;51.078;12.108;2024-01-06T11:02:17;3.53;;;2.58;;
37241;SDS011;23135;51.078;12.108;2024-01-06T11:04:44;4.75;;;2.08;;
37241;SDS011;23135;51.078;12.108;2024-01-06T11:07:11;5.40;;;2.90;;
37241;SDS011;23135;51.078;12.108;2024-01-06T11:09:39;4.80;;;2.25;;
37241;SDS011;23135;51.078;12.108;2024-01-06T11:12:10;4.43;;;2.20;;
37241;SDS011;23135;51.078;12.108;2024-01-06T11:14:36;7.22;;;1.55;;
37241;SDS011;23135;51.078;12.108;2024-01-06T11:17:02;9.80;;;1.90;;
37241;SDS011;23135;51.078;12.108;2024-01-06T11:22:20;11.88;;;2.33;;
37241;SDS011;23135;51.078;12.108;2024-01-06T11:24:50;5.85;;;1.92;;
37241;SDS011;23135;51.078;12.108;2024-01-06T11:27:21;4.45;;;1.63;;
37241;SDS011;23135;51.078;12.108;2024-01-06T11:29:53;3.72;;;1.50;;
37241;SDS011;23135;51.078;12.108;2024-01-06T11:32:21;4.82;;;2.15;;
37241;SDS011;23135;51.078;12.108;2024-01-06T11:34:54;3.45;;;1.75;;
37241;SDS011;23135;51.078;12.108;2024-01-06T11:37:26;6.82;;;2.55;;
37241;SDS011;23135;51.078;12.108;2024-01-06T11:43:08;3.30;;;1.52;;
37241;SDS011;23135;51.078;12.108;2024-01-06T11:45:33;7.15;;;2.30;;
37241;SDS011;23135;51.078;12.108;2024-01-06T11:48:04;4.38;;;1.90;;
37241;SDS011;23135;51.078;12.108;2024-01-06T11:50:32;7.53;;;2.35;;
37241;SDS011;23135;51.078;12.108;2024-01-06T11:52:59;6.28;;;1.55;;
37241;SDS011;23135;51.078;12.108;2024-01-06T11:55:26;5.15;;;1.77;;
37241;SDS011;23135;51.078;12.108;2024-01-06T11:57:58;2.97;;;1.67;;
37241;SDS011;23135;51.078;12.108;2024-01-06T12:00:34;4.13;;;2.20;;
37241;SDS011;23135;51.078;12.108;2024-01-06T12:03:04;5.28;;;2.50;;
37241;SDS011;23135;51.078;12.108;2024-01-06T12:05:30;10.80;;;4.07;;
37241;SDS011;23135;51.078;12.108;2024-01-06T12:07:59;6.75;;;2.97;;
37241;SDS011;23135;51.078;12.108;2024-01-06T12:10:27;6.78;;;2.25;;
37241;SDS011;23135;51.078;12.108;2024-01-06T12:13:06;3.38;;;2.20;;
37241;SDS011;23135;51.078;12.108;2024-01-06T12:15:35;6.38;;;2.47;;
37241;SDS011;23135;51.078;12.108;2024-01-06T12:18:04;12.40;;;3.78;;
37241;SDS011;23135;51.078;12.108;2024-01-06T12:20:30;6.22;;;3.10;;
37241;SDS011;23135;51.078;12.108;2024-01-06T12:22:57;6.55;;;2.38;;
37241;SDS011;23135;51.078;12.108;2024-01-06T12:25:24;2.78;;;2.08;;
37241;SDS011;23135;51.078;12.108;2024-01-06T12:27:51;7.68;;;2.25;;
37241;SDS011;23135;51.078;12.108;2024-01-06T12:30:18;10.68;;;2.47;;
37241;SDS011;23135;51.078;12.108;2024-01-06T12:32:48;5.43;;;2.47;;
37241;SDS011;23135;51.078;12.108;2024-01-06T12:35:15;5.80;;;1.65;;
37241;SDS011;23135;51.078;12.108;2024-01-06T12:37:41;3.20;;;2.13;;
37241;SDS011;23135;51.078;12.108;2024-01-06T12:40:14;6.05;;;2.05;;
37241;SDS011;23135;51.078;12.108;2024-01-06T12:42:42;8.73;;;1.90;;
37241;SDS011;23135;51.078;12.108;2024-01-06T12:45:08;12.10;;;5.85;;
37241;SDS011;23135;51.078;12.108;2024-01-06T12:47:35;12.73;;;4.85;;
37241;SDS011;23135;51.078;12.108;2024-01-06T12:50:01;10.77;;;2.80;;
37241;SDS011;23135;51.078;12.108;2024-01-06T12:52:29;3.83;;;0.85;;
37241;SDS011;23135;51.078;12.108;2024-01-06T12:54:54;2.25;;;1.40;;
37241;SDS011;23135;51.078;12.108;2024-01-06T12:57:20;5.13;;;2.05;;
37241;SDS011;23135;51.078;12.108;2024-01-06T12:59:45;6.72;;;3.13;;
37241;SDS011;23135;51.078;12.108;2024-01-06T13:02:11;5.60;;;2.30;;
37241;SDS011;23135;51.078;12.108;2024-01-06T13:04:36;4.70;;;1.58;;
37241;SDS011;23135;51.078;12.108;2024-01-06T13:07:02;5.65;;;1.63;;
37241;SDS011;23135;51.078;12.108;2024-01-06T13:09:28;7.65;;;2.10;;
37241;SDS011;23135;51.078;12.108;2024-01-06T13:11:54;6.78;;;2.13;;
37241;SDS011;23135;51.078;12.108;2024-01-06T13:14:25;5.65;;;1.65;;
37241;SDS011;23135;51.078;12.108;2024-01-06T13:16:51;4.68;;;1.63;;
37241;SDS011;23135;51.078;12.108;2024-01-06T13:19:16;6.80;;;2.78;;
37241;SDS011;23135;51.078;12.108;2024-01-06T13:21:42;2.83;;;2.13;;
37241;SDS011;23135;51.078;12.108;2024-01-06T13:24:08;7.00;;;1.85;;
37241;SDS011;23135;51.078;12.108;2024-01-06T13:26:35;9.32;;;2.63;;
37241;SDS011;23135;51.078;12.108;2024-01-06T13:29:01;7.18;;;2.92;;
37241;SDS011;23135;51.078;12.108;2024-01-06T13:31:27;9.60;;;2.15;;
37241;SDS011;23135;51.078;12.108;2024-01-06T13:33:54;7.80;;;2.65;;
37241;SDS011;23135;51.078;12.108;2024-01-06T13:36:20;8.20;;;2.47;;
37241;SDS011;23135;51.078;12.108;2024-01-06T13:38:46;5.97;;;2.03;;
37241;SDS011;23135;51.078;12.108;2024-01-06T13:41:13;8.77;;;4.28;;
37241;SDS011;23135;51.078;12.108;2024-01-06T13:43:39;10.77;;;4.35;;
37241;SDS011;23135;51.078;12.108;2024-01-06T13:46:05;10.25;;;4.90;;
37241;SDS011;23135;51.078;12.108;2024-01-06T13:48:30;9.93;;;5.03;;
37241;SDS011;23135;51.078;12.108;2024-01-06T13:50:56;9.95;;;4.93;;
37241;SDS011;23135;51.078;12.108;2024-01-06T13:53:23;13.30;;;5.18;;
37241;SDS011;23135;51.078;12.108;2024-01-06T13:55:49;7.78;;;4.60;;
37241;SDS011;23135;51.078;12.108;2024-01-06T13:58:15;8.77;;;4.20;;
37241;SDS011;23135;51.078;12.108;2024-01-06T14:00:40;8.77;;;4.05;;
37241;SDS011;23135;51.078;12.108;2024-01-06T14:03:07;6.30;;;3.58;;
37241;SDS011;23135;51.078;12.108;2024-01-06T14:05:33;6.75;;;3.45;;
37241;SDS011;23135;51.078;12.108;2024-01-06T14:07:59;12.90;;;7.00;;
37241;SDS011;23135;51.078;12.108;2024-01-06T14:10:25;13.20;;;6.95;;
37241;SDS011;23135;51.078;12.108;2024-01-06T14:12:51;12.55;;;4.50;;
37241;SDS011;23135;51.078;12.108;2024-01-06T14:15:19;13.23;;;5.95;;
37241;SDS011;23135;51.078;12.108;2024-01-06T14:17:44;10.80;;;4.13;;
37241;SDS011;23135;51.078;12.108;2024-01-06T14:20:14;10.10;;;5.07;;
37241;SDS011;23135;51.078;12.108;2024-01-06T14:22:42;9.05;;;4.18;;
37241;SDS011;23135;51.078;12.108;2024-01-06T14:25:12;13.63;;;4.95;;
37241;SDS011;23135;51.078;12.108;2024-01-06T14:27:38;9.93;;;4.03;;
37241;SDS011;23135;51.078;12.108;2024-01-06T14:30:04;9.10;;;4.20;;
37241;SDS011;23135;51.078;12.108;2024-01-06T14:32:32;10.60;;;5.18;;